createdAt,value
2018-08-28T00:01:20.016Z,126.00
2018-08-28T00:03:48.063Z,54.10
2018-08-28T00:06:16.133Z,18.00
2018-08-28T00:08:44.203Z,43.00
2018-08-28T00:11:12.284Z,56.40
2018-08-28T00:13:40.334Z,59.57
2018-08-28T00:16:08.407Z,47.80
2018-08-28T00:18:36.501Z,72.30
2018-08-28T00:21:04.603Z,59.73
2018-08-28T00:23:33.021Z,45.50
2018-08-28T00:26:03.179Z,61.93
2018-08-28T00:28:31.337Z,52.83
2018-08-28T00:30:59.402Z,56.80
2018-08-28T00:33:27.452Z,60.57
2018-08-28T00:35:55.520Z,56.67
2018-08-28T00:38:23.589Z,57.40
2018-08-28T00:40:51.713Z,53.47
2018-08-28T00:43:19.790Z,57.87
2018-08-28T00:45:47.867Z,77.67
2018-08-28T00:48:15.940Z,120.80
2018-08-28T00:50:44.081Z,44.90
2018-08-28T00:53:12.154Z,47.40
2018-08-28T00:55:40.215Z,49.13
2018-08-28T00:58:08.282Z,38.50
2018-08-28T01:00:36.358Z,37.17
2018-08-28T01:03:04.514Z,49.40
2018-08-28T01:05:32.583Z,61.03
2018-08-28T01:08:00.892Z,57.30
2018-08-28T01:10:28.970Z,62.10
2018-08-28T01:12:57.116Z,92.70
2018-08-28T01:15:25.179Z,68.70
2018-08-28T01:17:53.275Z,81.10
2018-08-28T01:20:21.332Z,58.27
2018-08-28T01:22:49.426Z,49.43
2018-08-28T01:25:17.511Z,53.10
2018-08-28T01:27:45.586Z,56.30
2018-08-28T01:30:13.643Z,58.23
2018-08-28T01:32:41.718Z,66.33
2018-08-28T01:35:09.785Z,43.57
2018-08-28T01:37:37.868Z,58.23
2018-08-28T01:40:06.077Z,63.50
2018-08-28T01:42:34.184Z,49.67
2018-08-28T01:45:02.259Z,63.00
2018-08-28T01:47:30.309Z,59.37
2018-08-28T01:49:58.449Z,53.57
2018-08-28T01:52:26.529Z,46.20
2018-08-28T01:54:54.653Z,47.60
2018-08-28T01:57:22.731Z,52.83
2018-08-28T01:59:50.801Z,55.63
2018-08-28T02:02:18.873Z,51.13
2018-08-28T02:04:46.937Z,59.17
2018-08-28T02:07:15.018Z,54.70
2018-08-28T02:09:43.128Z,48.50
2018-08-28T02:12:11.233Z,42.60
2018-08-28T02:14:39.322Z,48.97
2018-08-28T02:17:07.405Z,58.47
2018-08-28T02:19:36.061Z,43.43
2018-08-28T02:22:04.176Z,54.83
2018-08-28T02:24:32.235Z,46.03
2018-08-28T02:27:00.326Z,36.83
2018-08-28T02:29:28.384Z,31.43
2018-08-28T02:31:56.469Z,45.57
2018-08-28T02:34:24.574Z,41.33
2018-08-28T02:36:52.638Z,37.07
2018-08-28T02:39:20.706Z,45.00
2018-08-28T02:41:48.794Z,34.97
2018-08-28T02:44:16.882Z,38.73
2018-08-28T02:46:44.963Z,53.47
2018-08-28T02:49:13.107Z,63.47
2018-08-28T02:51:41.173Z,50.30
2018-08-28T02:54:09.514Z,55.70
2018-08-28T02:56:37.586Z,33.80
2018-08-28T02:59:05.709Z,38.73
2018-08-28T03:01:33.775Z,29.70
2018-08-28T03:04:01.848Z,34.67
2018-08-28T03:06:29.907Z,42.00
2018-08-28T03:08:57.987Z,38.83
2018-08-28T03:11:26.076Z,39.73
2018-08-28T03:13:54.232Z,38.10
2018-08-28T03:16:22.314Z,38.47
2018-08-28T03:18:50.393Z,46.40
2018-08-28T03:21:18.514Z,51.77
2018-08-28T03:23:46.577Z,45.37
2018-08-28T03:26:14.642Z,56.80
2018-08-28T03:28:42.705Z,52.60
2018-08-28T03:31:10.787Z,40.40
2018-08-28T03:33:38.850Z,53.37
2018-08-28T03:36:06.938Z,42.93
2018-08-28T03:38:35.022Z,43.57
2018-08-28T03:41:03.092Z,47.13
2018-08-28T03:43:31.214Z,46.43
2018-08-28T03:45:59.285Z,35.87
2018-08-28T03:48:27.771Z,35.20
2018-08-28T03:50:55.834Z,41.10
2018-08-28T03:53:23.899Z,37.40
2018-08-28T03:55:51.962Z,35.30
2018-08-28T03:58:20.034Z,37.73
2018-08-28T04:00:48.133Z,47.40
2018-08-28T04:03:16.245Z,30.47
2018-08-28T04:05:44.312Z,37.80
2018-08-28T04:08:12.420Z,33.97
2018-08-28T04:10:40.481Z,38.47
2018-08-28T04:13:08.617Z,41.17
2018-08-28T04:15:36.677Z,47.20
2018-08-28T04:18:04.748Z,56.80
2018-08-28T04:20:32.826Z,42.53
2018-08-28T04:23:00.898Z,39.37
2018-08-28T04:25:28.986Z,43.67
2018-08-28T04:27:57.042Z,44.43
2018-08-28T04:30:25.119Z,39.83
2018-08-28T04:32:53.192Z,38.47
2018-08-28T04:35:21.266Z,44.17
2018-08-28T04:37:49.343Z,63.07
2018-08-28T04:40:17.845Z,44.50
2018-08-28T04:42:45.910Z,42.93
2018-08-28T04:45:13.966Z,35.87
2018-08-28T04:47:42.098Z,56.90
2018-08-28T04:50:10.165Z,45.37
2018-08-28T04:52:38.218Z,61.83
2018-08-28T04:55:06.377Z,41.60
2018-08-28T04:57:34.481Z,42.40
2018-08-28T05:00:02.550Z,41.30
2018-08-28T05:02:35.697Z,49.33
2018-08-28T05:05:05.513Z,48.00
2018-08-28T05:07:33.907Z,51.40
2018-08-28T05:10:02.117Z,39.77
2018-08-28T05:12:30.218Z,30.63
2018-08-28T05:14:58.722Z,41.23
2018-08-28T05:17:26.818Z,43.20
2018-08-28T05:19:55.050Z,41.00
2018-08-28T05:22:24.053Z,31.67
2018-08-28T05:24:52.338Z,27.03
2018-08-28T05:27:20.599Z,30.40
2018-08-28T05:29:48.741Z,22.17
2018-08-28T05:32:16.816Z,21.40
2018-08-28T05:34:45.172Z,18.87
2018-08-28T05:37:13.316Z,19.67
2018-08-28T05:39:41.404Z,18.03
2018-08-28T05:42:09.483Z,17.47
2018-08-28T05:44:37.553Z,16.83
2018-08-28T05:47:05.644Z,16.67
2018-08-28T05:49:33.852Z,18.90
2018-08-28T05:52:01.973Z,15.17
2018-08-28T05:54:30.089Z,16.37
2018-08-28T05:56:58.181Z,13.90
2018-08-28T05:59:26.316Z,14.27
2018-08-28T06:01:54.412Z,15.03
2018-08-28T06:04:22.525Z,16.93
2018-08-28T06:06:50.725Z,13.87
2018-08-28T06:09:18.858Z,12.43
2018-08-28T06:11:46.991Z,13.37
2018-08-28T06:14:15.174Z,13.57
2018-08-28T06:16:43.289Z,12.40
2018-08-28T06:19:11.476Z,15.33
2018-08-28T06:21:39.554Z,13.77
2018-08-28T06:24:07.641Z,12.10
2018-08-28T06:26:35.868Z,10.97
2018-08-28T06:29:03.814Z,14.37
2018-08-28T06:31:31.915Z,12.50
2018-08-28T06:34:00.070Z,13.50
2018-08-28T06:36:28.075Z,13.75
2018-08-28T06:38:56.148Z,14.25
2018-08-28T06:41:24.391Z,11.80
2018-08-28T06:43:52.520Z,12.82
2018-08-28T06:46:20.553Z,9.48
2018-08-28T06:48:48.671Z,10.43
2018-08-28T06:51:16.782Z,11.97
2018-08-28T06:53:44.877Z,12.93
2018-08-28T06:56:12.978Z,9.60
2018-08-28T06:58:41.066Z,11.83
2018-08-28T07:01:09.162Z,11.88
2018-08-28T07:03:37.274Z,9.93
2018-08-28T07:06:05.410Z,10.78
2018-08-28T07:08:33.556Z,11.22
2018-08-28T07:11:01.640Z,11.70
2018-08-28T07:13:29.767Z,9.50
2018-08-28T07:15:57.920Z,10.98
2018-08-28T07:18:26.053Z,9.73
2018-08-28T07:20:54.160Z,10.75
2018-08-28T07:23:22.258Z,10.03
2018-08-28T07:25:50.429Z,9.95
2018-08-28T07:28:18.517Z,10.60
2018-08-28T07:30:46.677Z,9.60
2018-08-28T07:33:15.223Z,12.80
2018-08-28T07:35:43.436Z,7.70
2018-08-28T07:38:11.525Z,11.30
2018-08-28T07:40:39.698Z,17.87
2018-08-28T07:43:07.826Z,10.68
2018-08-28T07:45:36.187Z,8.50
2018-08-28T07:48:04.343Z,9.73
2018-08-28T07:50:32.654Z,8.00
2018-08-28T07:53:00.741Z,9.15
2018-08-28T07:55:28.915Z,13.55
2018-08-28T07:57:57.010Z,9.18
2018-08-28T08:00:25.260Z,12.28
2018-08-28T08:02:53.477Z,9.40
2018-08-28T08:05:21.732Z,7.72
2018-08-28T08:07:49.984Z,13.78
2018-08-28T08:10:18.583Z,9.30
2018-08-28T08:12:46.767Z,10.30
2018-08-28T08:15:14.896Z,9.03
2018-08-28T08:17:43.083Z,11.78
2018-08-28T08:20:11.380Z,8.48
2018-08-28T08:22:39.487Z,11.25
2018-08-28T08:25:07.658Z,10.38
2018-08-28T08:27:35.896Z,11.53
2018-08-28T08:30:04.251Z,9.35
2018-08-28T08:32:32.424Z,8.68
2018-08-28T08:35:00.635Z,9.90
2018-08-28T08:37:28.975Z,10.82
2018-08-28T08:39:57.302Z,9.85
2018-08-28T08:42:25.706Z,8.63
2018-08-28T08:44:53.958Z,11.03
2018-08-28T08:47:22.104Z,10.13
2018-08-28T08:49:50.396Z,9.70
2018-08-28T08:52:18.542Z,9.10
2018-08-28T08:54:47.186Z,9.00
2018-08-28T08:57:16.151Z,9.68
2018-08-28T08:59:44.311Z,8.43
2018-08-28T09:02:12.630Z,10.45
2018-08-28T09:04:40.788Z,9.80
2018-08-28T09:07:09.056Z,7.30
2018-08-28T09:09:37.301Z,7.10
2018-08-28T09:12:05.439Z,7.87
2018-08-28T09:14:33.602Z,7.92
2018-08-28T09:17:01.787Z,9.55
2018-08-28T09:19:30.065Z,9.63
2018-08-28T09:21:58.328Z,7.10
2018-08-28T09:24:26.473Z,7.10
2018-08-28T09:26:54.685Z,10.82
2018-08-28T09:29:22.827Z,8.43
2018-08-28T09:31:51.031Z,9.95
2018-08-28T09:34:19.260Z,6.40
2018-08-28T09:36:47.435Z,9.03
2018-08-28T09:39:15.880Z,8.05
2018-08-28T09:41:44.129Z,7.72
2018-08-28T09:44:12.311Z,7.45
2018-08-28T09:46:41.306Z,12.40
2018-08-28T09:49:09.415Z,7.62
2018-08-28T09:51:37.718Z,5.67
2018-08-28T09:54:06.063Z,10.15
2018-08-28T09:56:34.284Z,8.63
2018-08-28T09:59:02.429Z,6.05
2018-08-28T10:01:36.334Z,8.45
2018-08-28T10:04:04.717Z,8.88
2018-08-28T10:06:33.185Z,7.42
2018-08-28T10:09:01.396Z,8.10
2018-08-28T10:11:29.759Z,8.00
2018-08-28T10:13:58.120Z,8.63
2018-08-28T10:16:26.265Z,9.20
2018-08-28T10:18:54.498Z,6.42
2018-08-28T10:21:22.690Z,8.00
2018-08-28T10:23:50.841Z,7.12
2018-08-28T10:26:18.999Z,8.00
2018-08-28T10:28:47.157Z,10.38
2018-08-28T10:31:15.291Z,8.80
2018-08-28T10:33:43.438Z,7.03
2018-08-28T10:36:11.571Z,10.90
2018-08-28T10:38:39.757Z,8.55
2018-08-28T10:41:07.991Z,8.80
2018-08-28T10:43:36.303Z,6.60
2018-08-28T10:46:04.457Z,9.30
2018-08-28T10:48:32.593Z,7.00
2018-08-28T10:51:00.777Z,9.18
2018-08-28T10:53:28.879Z,10.78
2018-08-28T10:55:56.996Z,9.20
2018-08-28T10:58:25.249Z,8.08
2018-08-28T11:00:53.643Z,7.28
2018-08-28T11:03:21.962Z,7.45
2018-08-28T11:05:50.110Z,7.10
2018-08-28T11:08:18.223Z,6.92
2018-08-28T11:10:46.354Z,7.92
2018-08-28T11:13:14.806Z,8.15
2018-08-28T11:15:43.274Z,7.78
2018-08-28T11:18:11.398Z,9.00
2018-08-28T11:20:39.514Z,7.10
2018-08-28T11:23:07.954Z,6.40
2018-08-28T11:25:36.047Z,8.08
2018-08-28T11:28:04.214Z,10.63
2018-08-28T11:30:32.632Z,8.60
2018-08-28T11:33:00.849Z,10.32
2018-08-28T11:35:29.143Z,7.10
2018-08-28T11:37:57.285Z,6.33
2018-08-28T11:40:25.574Z,8.60
2018-08-28T11:42:53.803Z,6.87
2018-08-28T11:45:22.127Z,5.58
2018-08-28T11:47:50.370Z,6.12
2018-08-28T11:50:18.546Z,6.28
2018-08-28T11:52:46.743Z,6.30
2018-08-28T11:55:14.892Z,6.95
2018-08-28T11:57:43.125Z,9.13
2018-08-28T12:00:11.384Z,7.33
2018-08-28T12:02:39.720Z,10.85
2018-08-28T12:05:07.936Z,8.03
2018-08-28T12:07:36.004Z,7.28
2018-08-28T12:10:04.166Z,6.50
2018-08-28T12:12:32.319Z,9.03
2018-08-28T12:15:00.474Z,9.28
2018-08-28T12:17:28.782Z,8.68
2018-08-28T12:19:57.151Z,5.58
2018-08-28T12:22:25.572Z,8.50
2018-08-28T12:24:54.072Z,6.03
2018-08-28T12:27:22.279Z,7.45
2018-08-28T12:29:50.428Z,10.03
2018-08-28T12:32:18.605Z,7.10
2018-08-28T12:34:46.841Z,6.53
2018-08-28T12:37:15.369Z,8.48
2018-08-28T12:39:43.617Z,6.42
2018-08-28T12:42:11.834Z,8.08
2018-08-28T12:44:40.043Z,6.42
2018-08-28T12:47:08.325Z,6.22
2018-08-28T12:49:36.512Z,9.03
2018-08-28T12:52:04.631Z,8.28
2018-08-28T12:54:32.921Z,7.87
2018-08-28T12:57:01.023Z,7.70
2018-08-28T12:59:29.155Z,6.40
2018-08-28T13:01:57.464Z,6.25
2018-08-28T13:04:26.542Z,7.22
2018-08-28T13:06:54.650Z,6.12
2018-08-28T13:09:22.797Z,10.28
2018-08-28T13:11:51.077Z,7.70
2018-08-28T13:14:19.318Z,6.83
2018-08-28T13:16:47.540Z,9.65
2018-08-28T13:19:15.737Z,6.85
2018-08-28T13:21:43.937Z,7.00
2018-08-28T13:24:12.056Z,8.15
2018-08-28T13:26:40.168Z,7.00
2018-08-28T13:29:08.268Z,6.50
2018-08-28T13:31:36.421Z,6.25
2018-08-28T13:34:04.620Z,5.78
2018-08-28T13:36:32.748Z,8.43
2018-08-28T13:39:00.862Z,8.30
2018-08-28T13:41:29.036Z,8.30
2018-08-28T13:43:57.380Z,5.62
2018-08-28T13:46:25.492Z,6.10
2018-08-28T13:48:53.630Z,7.15
2018-08-28T13:51:21.767Z,9.85
2018-08-28T13:53:50.131Z,8.03
2018-08-28T13:56:18.137Z,7.25
2018-08-28T13:58:46.386Z,7.20
2018-08-28T14:01:14.724Z,7.72
2018-08-28T14:03:42.906Z,6.20
2018-08-28T14:06:11.357Z,8.00
2018-08-28T14:08:39.749Z,7.37
2018-08-28T14:11:07.938Z,7.12
2018-08-28T14:13:36.273Z,7.00
2018-08-28T14:16:04.656Z,7.65
2018-08-28T14:18:32.827Z,7.62
2018-08-28T14:21:01.010Z,5.85
2018-08-28T14:23:29.185Z,6.87
2018-08-28T14:25:57.318Z,5.90
2018-08-28T14:28:25.505Z,9.40
2018-08-28T14:30:53.719Z,9.28
2018-08-28T14:33:21.831Z,7.05
2018-08-28T14:35:50.375Z,5.33
2018-08-28T14:38:18.685Z,7.55
2018-08-28T14:40:47.108Z,5.97
2018-08-28T14:43:15.230Z,8.83
2018-08-28T14:45:43.367Z,6.80
2018-08-28T14:48:11.580Z,7.92
2018-08-28T14:50:39.957Z,5.95
2018-08-28T14:53:08.131Z,7.47
2018-08-28T14:55:36.318Z,6.28
2018-08-28T14:58:04.550Z,6.20
2018-08-28T15:00:32.759Z,5.85
2018-08-28T15:03:00.985Z,8.35
2018-08-28T15:05:29.278Z,7.40
2018-08-28T15:07:57.374Z,8.35
2018-08-28T15:10:25.580Z,7.22
2018-08-28T15:12:53.961Z,7.85
2018-08-28T15:15:22.220Z,6.75
2018-08-28T15:17:50.385Z,7.95
2018-08-28T15:20:18.513Z,7.33
2018-08-28T15:22:46.705Z,6.30
2018-08-28T15:25:14.889Z,7.25
2018-08-28T15:27:43.158Z,8.40
2018-08-28T15:30:11.218Z,7.65
2018-08-28T15:32:39.649Z,7.83
2018-08-28T15:35:07.731Z,7.87
2018-08-28T15:37:35.945Z,10.68
2018-08-28T15:40:04.134Z,10.65
2018-08-28T15:42:32.253Z,7.65
2018-08-28T15:45:00.385Z,7.72
2018-08-28T15:47:28.993Z,9.85
2018-08-28T15:49:57.162Z,9.28
2018-08-28T15:52:25.350Z,9.23
2018-08-28T15:54:53.876Z,7.25
2018-08-28T15:57:22.249Z,6.55
2018-08-28T15:59:50.495Z,7.62
2018-08-28T16:02:19.803Z,8.43
2018-08-28T16:04:48.023Z,8.95
2018-08-28T16:07:16.104Z,10.30
2018-08-28T16:09:44.255Z,7.08
2018-08-28T16:12:12.388Z,8.63
2018-08-28T16:14:40.471Z,7.42
2018-08-28T16:17:08.597Z,8.58
2018-08-28T16:19:36.795Z,8.83
2018-08-28T16:22:05.606Z,7.65
2018-08-28T16:24:33.938Z,5.85
2018-08-28T16:27:02.154Z,6.50
2018-08-28T16:29:31.270Z,7.25
2018-08-28T16:31:59.472Z,7.03
2018-08-28T16:34:27.565Z,7.72
2018-08-28T16:36:55.890Z,6.65
2018-08-28T16:39:23.969Z,8.00
2018-08-28T16:41:52.212Z,8.65
2018-08-28T16:44:20.297Z,5.85
2018-08-28T16:46:48.433Z,6.80
2018-08-28T16:49:16.639Z,6.62
2018-08-28T16:51:44.817Z,7.75
2018-08-28T16:54:12.946Z,7.60
2018-08-28T16:56:41.304Z,5.85
2018-08-28T16:59:09.530Z,8.10
2018-08-28T17:01:37.702Z,9.35
2018-08-28T17:04:05.873Z,9.53
2018-08-28T17:06:33.983Z,6.30
2018-08-28T17:09:02.171Z,6.75
2018-08-28T17:11:30.291Z,6.92
2018-08-28T17:13:58.441Z,5.15
2018-08-28T17:16:26.655Z,7.37
2018-08-28T17:18:54.863Z,7.60
2018-08-28T17:21:23.183Z,7.62
2018-08-28T17:23:51.246Z,7.22
2018-08-28T17:26:19.370Z,8.33
2018-08-28T17:28:47.502Z,6.30
2018-08-28T17:31:15.666Z,7.75
2018-08-28T17:33:43.849Z,7.50
2018-08-28T17:36:11.973Z,6.47
2018-08-28T17:38:40.176Z,7.72
2018-08-28T17:41:08.243Z,8.08
2018-08-28T17:43:36.406Z,8.60
2018-08-28T17:46:04.576Z,7.72
2018-08-28T17:48:32.687Z,8.00
2018-08-28T17:51:01.069Z,10.30
2018-08-28T17:53:29.208Z,9.60
2018-08-28T17:55:57.327Z,10.23
2018-08-28T17:58:25.552Z,9.50
2018-08-28T18:00:53.650Z,8.57
2018-08-28T18:03:21.745Z,11.10
2018-08-28T18:05:49.910Z,8.13
2018-08-28T18:08:18.081Z,13.00
2018-08-28T18:10:46.268Z,9.97
2018-08-28T18:13:14.371Z,9.70
2018-08-28T18:15:42.498Z,8.17
2018-08-28T18:18:10.607Z,10.80
2018-08-28T18:20:38.670Z,13.93
2018-08-28T18:23:06.782Z,11.60
2018-08-28T18:25:34.916Z,11.40
2018-08-28T18:28:02.970Z,13.07
2018-08-28T18:30:31.063Z,12.50
2018-08-28T18:32:59.264Z,13.53
2018-08-28T18:35:27.351Z,11.30
2018-08-28T18:37:55.669Z,13.37
2018-08-28T18:40:23.755Z,10.80
2018-08-28T18:42:51.830Z,13.73
2018-08-28T18:45:19.882Z,10.80
2018-08-28T18:47:48.119Z,15.60
2018-08-28T18:50:16.237Z,17.17
2018-08-28T18:52:44.324Z,15.50
2018-08-28T18:55:12.713Z,20.17
2018-08-28T18:57:40.813Z,13.07
2018-08-28T19:00:08.945Z,12.73
2018-08-28T19:02:37.119Z,15.07
2018-08-28T19:05:05.186Z,11.00
2018-08-28T19:07:40.367Z,13.03
2018-08-28T19:10:08.442Z,11.10
2018-08-28T19:12:36.566Z,13.00
2018-08-28T19:15:04.663Z,14.67
2018-08-28T19:17:32.748Z,18.77
2018-08-28T19:20:00.807Z,15.90
2018-08-28T19:22:28.978Z,17.13
2018-08-28T19:24:57.063Z,16.37
2018-08-28T19:27:25.209Z,10.77
2018-08-28T19:29:53.266Z,10.17
2018-08-28T19:32:21.424Z,14.40
2018-08-28T19:34:49.489Z,15.77
2018-08-28T19:37:17.601Z,9.73
2018-08-28T19:39:45.702Z,10.50
2018-08-28T19:42:13.780Z,11.03
2018-08-28T19:44:42.015Z,9.37
2018-08-28T19:47:10.086Z,10.70
2018-08-28T19:49:38.230Z,11.97
2018-08-28T19:52:06.271Z,13.10
2018-08-28T19:54:34.393Z,12.83
2018-08-28T19:57:02.473Z,13.37
2018-08-28T19:59:30.527Z,11.00
2018-08-28T20:01:58.614Z,11.90
2018-08-28T20:04:26.666Z,15.37
2018-08-28T20:06:54.722Z,21.57
2018-08-28T20:09:22.789Z,18.23
2018-08-28T20:11:50.833Z,19.13
2018-08-28T20:14:18.889Z,19.03
2018-08-28T20:16:46.955Z,19.00
2018-08-28T20:19:15.055Z,17.10
2018-08-28T20:21:43.113Z,22.53
2018-08-28T20:24:11.176Z,15.23
2018-08-28T20:26:40.313Z,22.80
2018-08-28T20:29:08.402Z,20.80
2018-08-28T20:31:36.745Z,16.17
2018-08-28T20:34:05.428Z,16.60
2018-08-28T20:36:33.655Z,17.17
2018-08-28T20:39:03.866Z,11.70
2018-08-28T20:41:31.948Z,17.50
2018-08-28T20:44:00.015Z,21.87
2018-08-28T20:46:28.087Z,16.53
2018-08-28T20:48:56.187Z,19.23
2018-08-28T20:51:24.239Z,19.03
2018-08-28T20:53:52.322Z,18.97
2018-08-28T20:56:20.373Z,13.10
2018-08-28T20:58:48.581Z,23.17
2018-08-28T21:01:16.657Z,13.77
2018-08-28T21:03:44.754Z,15.73
2018-08-28T21:06:12.826Z,19.50
2018-08-28T21:08:40.869Z,17.83
2018-08-28T21:11:08.947Z,18.40
2018-08-28T21:13:37.014Z,20.03
2018-08-28T21:16:05.101Z,17.43
2018-08-28T21:18:33.193Z,19.90
2018-08-28T21:21:01.255Z,21.50
2018-08-28T21:23:29.323Z,20.23
2018-08-28T21:25:57.426Z,22.67
2018-08-28T21:28:25.502Z,21.40
2018-08-28T21:30:53.614Z,23.20
2018-08-28T21:33:21.673Z,22.77
2018-08-28T21:35:49.839Z,17.13
2018-08-28T21:38:17.833Z,13.33
2018-08-28T21:40:45.901Z,15.87
2018-08-28T21:43:13.979Z,15.60
2018-08-28T21:45:42.063Z,5.47
2018-08-28T21:48:10.147Z,4.87
2018-08-28T21:50:38.207Z,4.40
2018-08-28T21:53:06.292Z,9.60
2018-08-28T21:55:34.390Z,17.73
2018-08-28T21:58:02.440Z,15.17
2018-08-28T22:00:30.489Z,17.73
2018-08-28T22:02:58.579Z,15.20
2018-08-28T22:05:29.546Z,16.37
2018-08-28T22:07:59.669Z,23.50
2018-08-28T22:10:28.051Z,28.67
2018-08-28T22:12:56.095Z,31.37
2018-08-28T22:15:24.150Z,34.10
2018-08-28T22:17:52.397Z,29.33
2018-08-28T22:20:20.444Z,24.40
2018-08-28T22:22:48.513Z,38.30
2018-08-28T22:25:16.600Z,34.53
2018-08-28T22:27:44.669Z,34.47
2018-08-28T22:30:12.744Z,29.63
2018-08-28T22:32:41.957Z,37.40
2018-08-28T22:35:10.042Z,43.33
2018-08-28T22:37:38.129Z,38.20
2018-08-28T22:40:08.477Z,30.17
2018-08-28T22:42:36.577Z,25.77
2018-08-28T22:45:04.753Z,29.37
2018-08-28T22:47:32.821Z,19.40
2018-08-28T22:50:00.871Z,19.07
2018-08-28T22:52:28.966Z,16.60
2018-08-28T22:54:57.018Z,14.63
2018-08-28T22:57:25.073Z,21.77
2018-08-28T22:59:53.151Z,28.63
2018-08-28T23:02:21.210Z,20.20
2018-08-28T23:04:49.239Z,38.20
2018-08-28T23:07:17.274Z,32.77
2018-08-28T23:09:45.417Z,47.50
2018-08-28T23:12:13.532Z,51.50
2018-08-28T23:14:41.539Z,50.00
2018-08-28T23:17:09.631Z,51.10
2018-08-28T23:19:38.281Z,41.97
2018-08-28T23:22:06.326Z,35.43
2018-08-28T23:24:34.362Z,38.47
2018-08-28T23:27:02.407Z,23.97
2018-08-28T23:29:30.470Z,22.37
2018-08-28T23:31:58.538Z,25.17
2018-08-28T23:34:26.583Z,23.20
2018-08-28T23:36:54.633Z,28.90
2018-08-28T23:39:22.701Z,23.67
2018-08-28T23:41:50.858Z,23.47
2018-08-28T23:44:18.877Z,16.10
2018-08-28T23:46:46.932Z,13.17
2018-08-28T23:49:14.993Z,19.00
2018-08-28T23:51:43.033Z,26.73
2018-08-28T23:54:11.086Z,26.57
2018-08-28T23:56:39.142Z,34.30
2018-08-28T23:59:07.180Z,39.73
